createdAt,value
2023-01-04T00:00:48.942Z,76.25
2023-01-04T00:03:18.376Z,78.97
2023-01-04T00:05:47.646Z,64.47
2023-01-04T00:08:16.752Z,66.28
2023-01-04T00:10:46.117Z,61.42
2023-01-04T00:13:16.725Z,73.25
2023-01-04T00:15:45.912Z,72.55
2023-01-04T00:18:15.435Z,70.18
2023-01-04T00:20:44.897Z,85.93
2023-01-04T00:23:14.064Z,82.70
2023-01-04T00:25:43.524Z,68.53
2023-01-04T00:28:12.616Z,70.93
2023-01-04T00:30:44.059Z,74.93
2023-01-04T00:33:13.519Z,70.65
2023-01-04T00:35:46.160Z,68.30
2023-01-04T00:38:15.638Z,70.55
2023-01-04T00:40:44.891Z,68.20
2023-01-04T00:43:14.298Z,67.63
2023-01-04T00:45:45.953Z,70.40
2023-01-04T00:48:15.164Z,81.97
2023-01-04T00:50:46.115Z,70.70
2023-01-04T00:53:19.060Z,70.28
2023-01-04T00:55:50.049Z,87.03
2023-01-04T00:58:19.270Z,85.95
2023-01-04T01:00:53.070Z,74.10
2023-01-04T01:03:22.499Z,89.70
2023-01-04T01:05:51.791Z,83.28
2023-01-04T01:08:26.763Z,69.35
2023-01-04T01:10:56.786Z,72.00
2023-01-04T01:13:27.826Z,63.75
2023-01-04T01:15:58.548Z,66.25
2023-01-04T01:18:27.805Z,62.97
2023-01-04T01:20:56.889Z,64.90
2023-01-04T01:23:25.980Z,73.05
2023-01-04T01:25:55.232Z,58.38
2023-01-04T01:28:24.422Z,64.13
2023-01-04T01:30:54.736Z,67.45
2023-01-04T01:33:25.268Z,56.60
2023-01-04T01:35:54.407Z,53.10
2023-01-04T01:38:23.497Z,57.22
2023-01-04T01:40:52.959Z,73.45
2023-01-04T01:43:25.559Z,67.65
2023-01-04T01:45:58.021Z,59.97
2023-01-04T01:48:30.996Z,62.13
2023-01-04T01:51:04.763Z,57.45
2023-01-04T01:53:42.173Z,55.72
2023-01-04T01:56:11.978Z,64.75
2023-01-04T01:58:45.023Z,54.85
2023-01-04T02:01:14.788Z,66.18
2023-01-04T02:03:45.964Z,66.15
2023-01-04T02:06:22.740Z,60.38
2023-01-04T02:08:52.636Z,68.40
2023-01-04T02:11:21.800Z,64.57
2023-01-04T02:14:09.305Z,62.33
2023-01-04T02:16:56.416Z,70.35
2023-01-04T02:20:03.876Z,64.40
2023-01-04T02:23:16.851Z,90.68
2023-01-04T02:26:59.168Z,85.05
2023-01-04T02:30:33.760Z,87.55
2023-01-04T02:33:18.174Z,74.22
2023-01-04T02:36:00.579Z,73.53
2023-01-04T02:38:39.823Z,63.38
2023-01-04T02:41:20.334Z,72.30
2023-01-04T02:44:14.464Z,61.10
2023-01-04T02:46:48.034Z,59.05
2023-01-04T02:49:36.325Z,64.28
2023-01-04T02:52:05.577Z,64.88
2023-01-04T02:54:35.181Z,65.63
2023-01-04T02:57:27.005Z,67.63
2023-01-04T03:00:21.198Z,67.22
2023-01-04T03:03:27.050Z,66.05
2023-01-04T03:06:16.596Z,64.28
2023-01-04T03:08:57.672Z,64.30
2023-01-04T03:11:54.867Z,54.95
2023-01-04T03:14:33.375Z,50.10
2023-01-04T03:17:05.960Z,50.92
2023-01-04T03:19:55.508Z,45.45
2023-01-04T03:22:52.736Z,47.15
2023-01-04T03:25:53.933Z,44.33
2023-01-04T03:28:44.286Z,40.55
2023-01-04T03:31:38.436Z,46.47
2023-01-04T03:34:25.161Z,51.60
2023-01-04T03:37:08.639Z,45.35
2023-01-04T03:40:10.680Z,40.13
2023-01-04T03:43:06.150Z,39.80
2023-01-04T03:46:01.875Z,41.63
2023-01-04T03:48:37.913Z,42.03
2023-01-04T03:51:15.706Z,37.00
2023-01-04T03:53:54.695Z,36.53
2023-01-04T03:56:26.447Z,49.38
2023-01-04T03:58:55.932Z,45.17
2023-01-04T04:01:28.339Z,41.47
2023-01-04T04:04:15.352Z,41.83
2023-01-04T04:07:01.926Z,44.30
2023-01-04T04:09:31.142Z,44.58
2023-01-04T04:12:01.653Z,45.03
2023-01-04T04:14:31.093Z,40.05
2023-01-04T04:17:00.337Z,39.85
2023-01-04T04:19:29.562Z,41.88
2023-01-04T04:21:58.704Z,36.65
2023-01-04T04:24:28.633Z,48.28
2023-01-04T04:26:57.829Z,45.45
2023-01-04T04:29:28.243Z,42.40
2023-01-04T04:31:57.401Z,42.08
2023-01-04T04:34:26.588Z,41.15
2023-01-04T04:36:55.758Z,41.13
2023-01-04T04:39:24.903Z,37.22
2023-01-04T04:41:53.024Z,40.40
2023-01-04T04:44:22.439Z,38.88
2023-01-04T04:46:53.031Z,50.42
2023-01-04T04:49:22.389Z,47.15
2023-01-04T04:51:51.490Z,51.80
2023-01-04T04:54:23.087Z,58.80
2023-01-04T04:56:54.416Z,61.25
2023-01-04T04:59:23.507Z,63.58
2023-01-04T05:01:54.195Z,65.10
2023-01-04T05:04:23.459Z,70.03
2023-01-04T05:06:53.344Z,71.63
2023-01-04T05:09:24.416Z,62.97
2023-01-04T05:12:11.150Z,58.78
2023-01-04T05:14:40.175Z,53.05
2023-01-04T05:17:10.820Z,45.00
2023-01-04T05:19:42.190Z,53.20
2023-01-04T05:22:11.362Z,48.67
2023-01-04T05:24:40.534Z,44.30
2023-01-04T05:27:09.674Z,50.33
2023-01-04T05:29:56.574Z,45.95
2023-01-04T05:32:27.097Z,58.55
2023-01-04T05:34:56.188Z,61.45
2023-01-04T05:37:25.787Z,47.33
2023-01-04T05:39:54.951Z,64.00
2023-01-04T05:42:27.923Z,59.83
2023-01-04T05:44:59.363Z,60.15
2023-01-04T05:47:30.486Z,54.92
2023-01-04T05:49:59.736Z,50.15
2023-01-04T05:52:29.513Z,45.58
2023-01-04T05:54:58.685Z,41.85
2023-01-04T05:57:28.129Z,40.50
2023-01-04T05:59:57.378Z,38.88
2023-01-04T06:02:32.294Z,45.22
2023-01-04T06:05:01.913Z,39.53
2023-01-04T06:07:35.005Z,39.30
2023-01-04T06:10:04.229Z,39.53
2023-01-04T06:12:33.400Z,33.97
2023-01-04T06:15:02.570Z,37.47
2023-01-04T06:17:33.287Z,37.95
2023-01-04T06:20:02.577Z,42.03
2023-01-04T06:22:32.900Z,37.95
2023-01-04T06:25:02.069Z,37.70
2023-01-04T06:27:31.304Z,36.80
2023-01-04T06:30:00.455Z,37.50
2023-01-04T06:32:29.682Z,38.00
2023-01-04T06:35:00.405Z,36.78
2023-01-04T06:37:29.569Z,41.40
2023-01-04T06:39:58.740Z,37.15
2023-01-04T06:42:45.984Z,43.55
2023-01-04T06:45:16.521Z,39.20
2023-01-04T06:47:47.902Z,38.13
2023-01-04T06:50:18.788Z,43.15
2023-01-04T06:52:47.932Z,44.47
2023-01-04T06:55:17.301Z,49.63
2023-01-04T06:57:46.351Z,57.72
2023-01-04T07:00:16.995Z,50.15
2023-01-04T07:03:13.935Z,48.72
2023-01-04T07:05:36.799Z,48.03
2023-01-04T07:08:08.361Z,49.42
2023-01-04T07:10:38.514Z,54.42
2023-01-04T07:13:08.261Z,51.05
2023-01-04T07:15:40.681Z,51.72
2023-01-04T07:18:11.200Z,48.22
2023-01-04T07:20:41.820Z,46.67
2023-01-04T07:23:11.759Z,46.30
2023-01-04T07:25:40.896Z,44.22
2023-01-04T07:28:10.866Z,39.97
2023-01-04T07:30:40.080Z,43.65
2023-01-04T07:33:09.372Z,41.80
2023-01-04T07:35:38.463Z,40.85
2023-01-04T07:38:09.022Z,44.15
2023-01-04T07:40:38.058Z,37.17
2023-01-04T07:43:28.231Z,38.70
2023-01-04T07:45:57.936Z,41.70
2023-01-04T07:48:29.702Z,41.20
2023-01-04T07:50:58.870Z,41.42
2023-01-04T07:53:29.588Z,36.40
2023-01-04T07:55:59.198Z,40.25
2023-01-04T07:58:32.992Z,37.05
2023-01-04T08:01:08.854Z,43.10
2023-01-04T08:03:38.513Z,35.70
2023-01-04T08:06:09.341Z,39.28
2023-01-04T08:08:39.983Z,40.20
2023-01-04T08:11:12.996Z,40.53
2023-01-04T08:13:42.679Z,43.30
2023-01-04T08:16:27.770Z,40.35
2023-01-04T08:18:59.304Z,36.15
2023-01-04T08:21:31.088Z,37.13
2023-01-04T08:24:02.183Z,40.00
2023-01-04T08:26:31.758Z,37.75
2023-01-04T08:29:00.995Z,37.45
2023-01-04T08:31:32.677Z,42.60
2023-01-04T08:34:05.147Z,40.72
2023-01-04T08:36:36.583Z,37.20
2023-01-04T08:39:07.847Z,39.35
2023-01-04T08:44:40.136Z,41.15
2023-01-04T08:47:09.945Z,70.13
2023-01-04T08:49:39.132Z,36.95
2023-01-04T08:52:10.095Z,31.33
2023-01-04T08:54:40.614Z,30.63
2023-01-04T08:57:09.673Z,33.60
2023-01-04T08:59:38.877Z,30.73
2023-01-04T09:02:21.206Z,30.20
2023-01-04T09:04:51.415Z,30.95
2023-01-04T09:07:21.256Z,30.30
2023-01-04T09:09:51.771Z,26.92
2023-01-04T09:12:20.871Z,28.23
2023-01-04T09:14:50.377Z,24.77
2023-01-04T09:17:19.789Z,23.58
2023-01-04T09:19:49.415Z,23.35
2023-01-04T09:22:18.824Z,22.50
2023-01-04T09:24:50.106Z,26.77
2023-01-04T09:27:20.788Z,22.98
2023-01-04T09:29:49.894Z,21.25
2023-01-04T09:32:19.733Z,22.35
2023-01-04T09:34:49.258Z,22.15
2023-01-04T09:37:18.408Z,20.48
2023-01-04T09:39:47.744Z,17.70
2023-01-04T09:42:24.248Z,18.20
2023-01-04T09:47:56.088Z,32.88
2023-01-04T09:50:29.874Z,18.52
2023-01-04T09:53:12.596Z,14.23
2023-01-04T09:55:48.250Z,16.15
2023-01-04T09:58:29.309Z,16.15
2023-01-04T10:01:04.828Z,12.30
2023-01-04T10:03:36.387Z,13.07
2023-01-04T10:06:09.329Z,12.63
2023-01-04T10:08:38.590Z,12.05
2023-01-04T10:11:33.386Z,17.20
2023-01-04T10:14:35.540Z,15.73
2023-01-04T10:17:35.662Z,12.73
2023-01-04T10:21:26.756Z,14.25
2023-01-04T10:26:47.173Z,14.40
2023-01-04T10:29:45.657Z,14.30
2023-01-04T10:32:21.136Z,15.13
2023-01-04T10:34:50.897Z,15.38
2023-01-04T10:37:23.485Z,14.93
2023-01-04T10:39:55.889Z,14.15
2023-01-04T10:42:38.361Z,14.77
2023-01-04T10:45:18.080Z,14.23
2023-01-04T10:48:03.928Z,17.67
2023-01-04T10:50:41.013Z,14.23
2023-01-04T10:53:17.960Z,17.63
2023-01-04T10:56:25.236Z,16.92
2023-01-04T10:58:51.535Z,14.80
2023-01-04T11:01:29.847Z,17.45
2023-01-04T11:04:06.503Z,16.38
2023-01-04T11:06:42.054Z,15.93
2023-01-04T11:09:24.887Z,14.38
2023-01-04T11:11:58.186Z,15.25
2023-01-04T11:14:33.308Z,15.15
2023-01-04T11:17:10.198Z,18.65
2023-01-04T11:19:40.314Z,15.40
2023-01-04T11:22:18.079Z,20.50
2023-01-04T11:25:32.554Z,13.23
2023-01-04T11:27:48.134Z,13.15
2023-01-04T11:30:21.092Z,14.52
2023-01-04T11:32:59.631Z,17.13
2023-01-04T11:35:42.823Z,11.98
2023-01-04T11:38:16.571Z,13.63
2023-01-04T11:40:59.861Z,13.30
2023-01-04T11:43:31.184Z,12.93
2023-01-04T11:46:05.503Z,15.13
2023-01-04T11:48:42.541Z,13.32
2023-01-04T11:51:39.554Z,12.30
2023-01-04T11:54:21.129Z,11.10
2023-01-04T11:57:10.831Z,11.18
2023-01-04T11:59:41.056Z,12.98
2023-01-04T12:05:28.206Z,11.80
2023-01-04T12:07:59.357Z,11.25
2023-01-04T12:10:31.249Z,9.45
2023-01-04T12:13:03.305Z,14.45
2023-01-04T12:15:40.129Z,12.60
2023-01-04T12:18:18.716Z,13.18
2023-01-04T12:20:50.405Z,14.35
2023-01-04T12:23:20.705Z,11.85
2023-01-04T12:25:52.360Z,9.80
2023-01-04T12:28:37.311Z,9.18
2023-01-04T12:31:33.686Z,12.50
2023-01-04T12:34:43.485Z,13.93
2023-01-04T12:37:49.717Z,9.65
2023-01-04T12:40:54.303Z,9.07
2023-01-04T12:43:28.674Z,9.57
2023-01-04T12:47:01.277Z,8.70
2023-01-04T12:50:00.256Z,10.20
2023-01-04T12:55:59.389Z,10.53
2023-01-04T12:59:25.842Z,8.20
2023-01-04T13:02:23.417Z,11.05
2023-01-04T13:05:16.933Z,9.88
2023-01-04T13:07:50.818Z,9.23
2023-01-04T13:10:33.689Z,11.60
2023-01-04T13:13:34.020Z,12.05
2023-01-04T13:16:18.936Z,10.77
2023-01-04T13:18:51.563Z,11.40
2023-01-04T13:21:29.624Z,11.65
2023-01-04T13:24:02.659Z,14.52
2023-01-04T13:26:39.482Z,10.30
2023-01-04T13:29:13.571Z,10.93
2023-01-04T13:31:50.104Z,11.02
2023-01-04T13:34:28.490Z,12.07
2023-01-04T13:37:17.283Z,11.88
2023-01-04T13:39:51.198Z,12.40
2023-01-04T13:42:28.348Z,9.98
2023-01-04T13:46:10.032Z,9.98
2023-01-04T13:48:42.848Z,9.35
2023-01-04T13:51:18.562Z,9.40
2023-01-04T13:53:58.642Z,10.10
2023-01-04T13:56:31.899Z,8.63
2023-01-04T13:59:01.601Z,9.60
2023-01-04T14:01:33.455Z,9.25
2023-01-04T14:04:06.096Z,8.25
2023-01-04T14:06:41.185Z,8.98
2023-01-04T14:09:18.491Z,12.68
2023-01-04T14:12:07.692Z,11.82
2023-01-04T14:14:47.356Z,7.57
2023-01-04T14:17:32.658Z,10.07
2023-01-04T14:20:02.932Z,9.88
2023-01-04T14:22:53.673Z,8.88
2023-01-04T14:25:44.996Z,8.02
2023-01-04T14:28:47.053Z,8.32
2023-01-04T14:31:33.960Z,9.07
2023-01-04T14:34:12.962Z,6.82
2023-01-04T14:36:45.409Z,9.00
2023-01-04T14:39:35.062Z,8.23
2023-01-04T14:42:05.257Z,7.95
2023-01-04T14:44:41.187Z,9.93
2023-01-04T14:47:12.935Z,11.57
2023-01-04T14:49:42.114Z,11.15
2023-01-04T14:52:13.670Z,12.45
2023-01-04T14:54:42.811Z,9.63
2023-01-04T14:57:12.420Z,9.98
2023-01-04T14:59:44.152Z,10.77
2023-01-04T15:02:14.136Z,13.80
2023-01-04T15:04:43.340Z,10.25
2023-01-04T15:07:35.503Z,10.07
2023-01-04T15:10:06.827Z,9.98
2023-01-04T15:12:36.039Z,10.13
2023-01-04T15:15:08.257Z,18.35
2023-01-04T15:17:37.616Z,11.95
2023-01-04T15:20:08.533Z,11.98
2023-01-04T15:22:37.653Z,13.50
2023-01-04T15:25:08.363Z,13.18
2023-01-04T15:27:42.136Z,10.55
2023-01-04T15:30:14.867Z,12.43
2023-01-04T15:32:44.400Z,12.90
2023-01-04T15:35:16.963Z,13.25
2023-01-04T15:37:49.483Z,15.50
2023-01-04T15:40:20.213Z,15.38
2023-01-04T15:43:01.888Z,14.93
2023-01-04T15:45:38.298Z,13.40
2023-01-04T15:48:12.776Z,11.82
2023-01-04T15:50:45.462Z,18.08
2023-01-04T15:53:14.687Z,20.27
2023-01-04T15:55:43.942Z,17.50
2023-01-04T15:58:13.785Z,16.13
2023-01-04T16:00:44.315Z,15.13
2023-01-04T16:03:13.620Z,14.95
2023-01-04T16:05:42.796Z,16.67
2023-01-04T16:08:14.554Z,16.02
2023-01-04T16:10:44.744Z,16.67
2023-01-04T16:13:13.965Z,15.88
2023-01-04T16:15:44.718Z,13.45
2023-01-04T16:18:14.485Z,12.73
2023-01-04T16:20:43.867Z,34.20
2023-01-04T16:23:12.972Z,53.28
2023-01-04T16:25:42.123Z,37.63
2023-01-04T16:28:11.406Z,15.45
2023-01-04T16:30:41.513Z,13.80
2023-01-04T16:33:12.116Z,15.15
2023-01-04T16:35:41.258Z,14.88
2023-01-04T16:38:10.412Z,13.18
2023-01-04T16:40:39.578Z,17.88
2023-01-04T16:43:08.841Z,14.25
2023-01-04T16:45:39.039Z,14.43
2023-01-04T16:48:10.199Z,16.10
2023-01-04T16:50:44.244Z,11.82
2023-01-04T16:53:13.345Z,17.67
2023-01-04T16:55:42.486Z,13.13
2023-01-04T16:58:11.542Z,16.60
2023-01-04T17:00:40.826Z,15.35
2023-01-04T17:03:10.049Z,16.63
2023-01-04T17:05:40.863Z,13.75
2023-01-04T17:08:11.452Z,24.63
2023-01-04T17:10:40.633Z,18.08
2023-01-04T17:13:09.673Z,17.02
2023-01-04T17:15:43.504Z,19.75
2023-01-04T17:18:17.658Z,22.38
2023-01-04T17:20:54.822Z,23.02
2023-01-04T17:23:27.179Z,23.58
2023-01-04T17:26:10.446Z,14.00
2023-01-04T17:28:41.220Z,14.82
2023-01-04T17:31:16.168Z,16.83
2023-01-04T17:33:45.777Z,14.57
2023-01-04T17:36:18.066Z,16.45
2023-01-04T17:38:49.365Z,20.88
2023-01-04T17:41:21.027Z,23.38
2023-01-04T17:43:53.634Z,19.52
2023-01-04T17:46:24.599Z,19.75
2023-01-04T17:49:24.152Z,19.55
2023-01-04T17:51:43.239Z,18.27
2023-01-04T17:54:14.078Z,14.15
2023-01-04T17:56:43.448Z,14.60
2023-01-04T17:59:12.890Z,16.20
2023-01-04T18:01:43.871Z,16.90
2023-01-04T18:04:13.084Z,18.17
2023-01-04T18:06:42.542Z,21.73
2023-01-04T18:09:18.496Z,19.95
2023-01-04T18:11:51.198Z,14.48
2023-01-04T18:14:20.614Z,17.67
2023-01-04T18:16:59.287Z,20.30
2023-01-04T18:19:31.333Z,18.00
2023-01-04T18:22:00.911Z,19.77
2023-01-04T18:24:37.372Z,18.27
2023-01-04T18:27:21.427Z,17.60
2023-01-04T18:29:52.431Z,16.98
2023-01-04T18:32:22.159Z,22.23
2023-01-04T18:34:51.483Z,20.85
2023-01-04T18:37:20.707Z,23.42
2023-01-04T18:39:51.353Z,28.85
2023-01-04T18:42:20.583Z,32.22
2023-01-04T18:44:50.100Z,29.65
2023-01-04T18:47:20.789Z,29.20
2023-01-04T18:49:51.082Z,32.15
2023-01-04T18:52:20.697Z,25.05
2023-01-04T18:54:51.244Z,26.75
2023-01-04T18:57:20.445Z,24.52
2023-01-04T18:59:50.309Z,22.13
2023-01-04T19:02:23.673Z,26.77
2023-01-04T19:04:52.953Z,37.03
2023-01-04T19:07:22.142Z,39.72
2023-01-04T19:09:52.775Z,37.05
2023-01-04T19:12:22.062Z,34.55
2023-01-04T19:14:51.442Z,31.48
2023-01-04T19:17:24.548Z,32.17
2023-01-04T19:19:53.974Z,30.88
2023-01-04T19:22:23.277Z,33.47
2023-01-04T19:24:54.028Z,26.90
2023-01-04T19:27:23.491Z,31.95
2023-01-04T19:29:53.477Z,34.13
2023-01-04T19:32:22.734Z,34.65
2023-01-04T19:34:52.228Z,37.08
2023-01-04T19:37:21.548Z,38.30
2023-01-04T19:39:51.051Z,40.20
2023-01-04T19:42:21.602Z,37.83
2023-01-04T19:44:50.938Z,46.97
2023-01-04T19:47:22.449Z,39.58
2023-01-04T19:49:51.546Z,41.15
2023-01-04T19:52:23.995Z,34.53
2023-01-04T19:54:53.300Z,26.58
2023-01-04T19:57:23.984Z,28.95
2023-01-04T19:59:53.122Z,29.15
2023-01-04T20:02:22.382Z,27.58
2023-01-04T20:04:51.810Z,25.40
2023-01-04T20:07:24.019Z,23.50
2023-01-04T20:09:54.052Z,26.55
2023-01-04T20:12:24.695Z,26.48
2023-01-04T20:14:54.036Z,28.20
2023-01-04T20:17:23.412Z,37.15
2023-01-04T20:19:52.527Z,34.60
2023-01-04T20:22:22.191Z,35.00
2023-01-04T20:24:52.313Z,36.33
2023-01-04T20:27:21.523Z,41.63
2023-01-04T20:29:51.993Z,37.40
2023-01-04T20:32:21.106Z,42.65
2023-01-04T20:34:50.261Z,36.95
2023-01-04T20:37:19.668Z,35.35
2023-01-04T20:39:48.925Z,35.90
2023-01-04T20:42:35.351Z,45.28
2023-01-04T20:45:08.819Z,41.22
2023-01-04T20:47:38.035Z,35.65
2023-01-04T20:50:13.007Z,37.83
2023-01-04T20:52:42.448Z,35.25
2023-01-04T20:55:17.222Z,34.03
2023-01-04T20:57:47.221Z,33.80
2023-01-04T21:00:20.518Z,30.40
2023-01-04T21:02:53.193Z,34.05
2023-01-04T21:05:22.960Z,28.23
2023-01-04T21:07:52.158Z,32.97
2023-01-04T21:10:22.349Z,26.50
2023-01-04T21:12:51.808Z,27.73
2023-01-04T21:15:23.324Z,27.60
2023-01-04T21:17:53.802Z,29.60
2023-01-04T21:20:24.913Z,33.38
2023-01-04T21:22:56.051Z,32.70
2023-01-04T21:25:25.529Z,29.85
2023-01-04T21:28:00.705Z,40.42
2023-01-04T21:30:31.534Z,43.72
2023-01-04T21:33:02.249Z,34.60
2023-01-04T21:35:31.810Z,39.70
2023-01-04T21:38:01.322Z,35.13
2023-01-04T21:40:30.656Z,36.25
2023-01-04T21:42:59.968Z,34.75
2023-01-04T21:45:30.727Z,36.88
2023-01-04T21:47:59.849Z,36.85
2023-01-04T21:50:30.721Z,31.83
2023-01-04T21:53:00.116Z,40.97
2023-01-04T21:55:34.844Z,33.35
2023-01-04T21:58:04.726Z,30.75
2023-01-04T22:00:35.306Z,38.80
2023-01-04T22:03:04.572Z,33.72
2023-01-04T22:05:33.651Z,34.08
2023-01-04T22:08:02.851Z,31.08
2023-01-04T22:10:32.026Z,34.83
2023-01-04T22:13:01.228Z,34.60
2023-01-04T22:15:30.537Z,31.42
2023-01-04T22:18:01.158Z,30.85
2023-01-04T22:20:30.726Z,31.67
2023-01-04T22:23:00.315Z,29.27
2023-01-04T22:25:29.429Z,34.75
2023-01-04T22:27:58.550Z,30.10
2023-01-04T22:30:27.981Z,35.35
2023-01-04T22:32:57.337Z,42.15
2023-01-04T22:35:28.117Z,50.55
2023-01-04T22:37:57.356Z,46.92
2023-01-04T22:40:26.763Z,48.45
2023-01-04T22:42:55.802Z,41.05
2023-01-04T22:45:24.977Z,35.78
2023-01-04T22:47:54.098Z,31.35
2023-01-04T22:50:23.603Z,33.53
2023-01-04T22:52:55.398Z,33.45
2023-01-04T22:55:45.771Z,33.67
2023-01-04T22:58:17.438Z,27.42
2023-01-04T23:00:46.586Z,31.45
2023-01-04T23:03:16.300Z,32.45
2023-01-04T23:05:45.630Z,26.60
2023-01-04T23:08:16.184Z,25.48
2023-01-04T23:10:46.609Z,39.05
2023-01-04T23:13:15.829Z,34.92
2023-01-04T23:15:45.033Z,38.83
2023-01-04T23:18:15.504Z,42.72
2023-01-04T23:20:44.624Z,37.80
2023-01-04T23:23:15.236Z,40.17
2023-01-04T23:25:44.419Z,40.53
2023-01-04T23:28:13.580Z,43.90
2023-01-04T23:30:44.029Z,42.08
2023-01-04T23:33:13.327Z,47.22
2023-01-04T23:35:42.502Z,42.65
2023-01-04T23:38:11.672Z,38.97
2023-01-04T23:40:47.732Z,37.35
2023-01-04T23:43:16.944Z,37.70
2023-01-04T23:45:51.182Z,39.65
2023-01-04T23:48:20.875Z,41.53
2023-01-04T23:50:56.585Z,31.52
2023-01-04T23:53:26.240Z,36.03
2023-01-04T23:56:03.185Z,35.13
2023-01-04T23:58:34.346Z,32.35
